createdAt,value
2023-04-29T00:00:45.828Z,18.1892
2023-04-29T00:01:48.416Z,17.5994
2023-04-29T00:02:51.124Z,18.6692
2023-04-29T00:03:53.754Z,17.8810
2023-04-29T00:04:56.400Z,18.6424
2023-04-29T00:05:58.926Z,18.0416
2023-04-29T00:07:01.391Z,15.6998
2023-04-29T00:08:03.948Z,17.0714
2023-04-29T00:09:06.565Z,17.0763
2023-04-29T00:10:09.146Z,16.6631
2023-04-29T00:11:11.747Z,17.4257
2023-04-29T00:12:14.314Z,18.0247
2023-04-29T00:13:16.939Z,20.5698
2023-04-29T00:14:19.502Z,17.4650
2023-04-29T00:15:22.121Z,15.5909
2023-04-29T00:18:13.302Z,16.1572
2023-04-29T00:19:15.904Z,18.3583
2023-04-29T00:20:18.648Z,17.5949
2023-04-29T00:23:09.755Z,18.5370
2023-04-29T00:24:12.285Z,18.1814
2023-04-29T00:25:14.902Z,18.9340
2023-04-29T00:26:17.483Z,20.0469
2023-04-29T00:27:20.355Z,18.2839
2023-04-29T00:28:22.672Z,18.2895
2023-04-29T00:29:25.316Z,17.3787
2023-04-29T00:30:27.871Z,18.0740
2023-04-29T00:31:30.532Z,17.5509
2023-04-29T00:32:33.076Z,17.1907
2023-04-29T00:33:35.668Z,16.8665
2023-04-29T00:34:38.248Z,17.9749
2023-04-29T00:35:40.863Z,17.8942
2023-04-29T00:36:43.432Z,17.5863
2023-04-29T00:37:46.038Z,18.4316
2023-04-29T00:38:48.606Z,16.8390
2023-04-29T00:39:51.442Z,19.1962
2023-04-29T00:40:53.810Z,18.2259
2023-04-29T00:41:56.418Z,19.0639
2023-04-29T00:42:58.966Z,18.2905
2023-04-29T00:44:01.603Z,18.3752
2023-04-29T00:45:04.787Z,18.3497
2023-04-29T00:46:06.833Z,20.2231
2023-04-29T00:47:09.340Z,19.9350
2023-04-29T00:48:11.959Z,19.9411
2023-04-29T00:49:14.520Z,17.8575
2023-04-29T00:50:17.150Z,17.6918
2023-04-29T00:51:19.770Z,18.6575
2023-04-29T00:52:22.717Z,15.9848
2023-04-29T00:53:24.894Z,18.3708
2023-04-29T00:54:31.967Z,17.1550
2023-04-29T00:55:30.072Z,19.0179
2023-04-29T00:56:32.690Z,19.9073
2023-04-29T00:57:35.264Z,18.8966
2023-04-29T00:58:37.874Z,19.1474
2023-04-29T00:59:40.667Z,20.0746
2023-04-29T01:00:43.070Z,18.3641
2023-04-29T01:01:45.723Z,17.9343
2023-04-29T01:02:48.322Z,20.5103
2023-04-29T01:03:51.034Z,25.7532
2023-04-29T01:04:53.577Z,33.9449
2023-04-29T01:05:55.991Z,51.8654
2023-04-29T01:06:58.633Z,262.4189
2023-04-29T01:08:01.190Z,156.0495
2023-04-29T01:09:03.786Z,41.3712
2023-04-29T01:10:06.350Z,23.3995
2023-04-29T01:11:08.982Z,23.0411
2023-04-29T01:12:11.553Z,19.6068
2023-04-29T01:13:14.171Z,18.5871
2023-04-29T01:14:16.723Z,18.7943
2023-04-29T01:15:19.339Z,16.4852
2023-04-29T01:16:21.918Z,17.6750
2023-04-29T01:17:24.608Z,18.7933
2023-04-29T01:18:27.093Z,18.6516
2023-04-29T01:19:29.716Z,18.9297
2023-04-29T01:20:32.295Z,17.8758
2023-04-29T01:21:34.900Z,17.6797
2023-04-29T01:22:37.571Z,17.2723
2023-04-29T01:23:40.082Z,17.3715
2023-04-29T01:24:42.772Z,16.7292
2023-04-29T01:25:45.314Z,17.2853
2023-04-29T01:26:47.830Z,18.0255
2023-04-29T01:27:50.456Z,16.7530
2023-04-29T01:28:53.018Z,17.4358
2023-04-29T01:29:55.632Z,19.5845
2023-04-29T01:30:58.274Z,16.8628
2023-04-29T01:32:00.825Z,19.2011
2023-04-29T01:33:03.452Z,17.9733
2023-04-29T01:34:05.996Z,17.6851
2023-04-29T01:35:08.554Z,18.0494
2023-04-29T01:36:11.174Z,17.1644
2023-04-29T01:37:13.747Z,17.9273
2023-04-29T01:38:16.424Z,19.2125
2023-04-29T01:39:18.926Z,18.1054
2023-04-29T01:40:21.542Z,17.0330
2023-04-29T01:41:24.110Z,17.1954
2023-04-29T01:42:26.823Z,17.1128
2023-04-29T01:43:29.295Z,18.4918
2023-04-29T01:44:31.896Z,17.0614
2023-04-29T01:45:34.474Z,17.3475
2023-04-29T01:46:37.148Z,17.9065
2023-04-29T01:47:39.712Z,17.0675
2023-04-29T01:48:42.266Z,16.7247
2023-04-29T01:49:44.842Z,16.0621
2023-04-29T01:50:47.447Z,17.3209
2023-04-29T01:51:50.018Z,16.8160
2023-04-29T01:52:52.637Z,17.0697
2023-04-29T01:53:55.188Z,16.0296
2023-04-29T01:54:57.905Z,18.1437
2023-04-29T01:56:00.367Z,18.4671
2023-04-29T01:57:02.984Z,16.8126
2023-04-29T01:58:05.554Z,17.9911
2023-04-29T01:59:08.241Z,18.7865
2023-04-29T02:00:10.723Z,18.1337
2023-04-29T02:01:13.365Z,17.1618
2023-04-29T02:02:15.923Z,17.4161
2023-04-29T02:05:07.179Z,15.3020
2023-04-29T02:06:09.748Z,19.3259
2023-04-29T02:07:12.306Z,18.8284
2023-04-29T02:08:15.171Z,18.7544
2023-04-29T02:09:17.497Z,18.3560
2023-04-29T02:10:20.114Z,18.1151
2023-04-29T02:13:01.670Z,14.9672
2023-04-29T02:14:04.292Z,17.6269
2023-04-29T02:15:06.861Z,17.5268
2023-04-29T02:16:09.521Z,15.5851
2023-04-29T02:17:12.065Z,15.6789
2023-04-29T02:18:14.699Z,17.2360
2023-04-29T02:19:17.260Z,16.0633
2023-04-29T02:20:19.884Z,15.3843
2023-04-29T02:21:22.462Z,13.9916
2023-04-29T02:22:25.059Z,15.5832
2023-04-29T02:23:27.775Z,15.4049
2023-04-29T02:24:30.271Z,15.0618
2023-04-29T02:25:32.847Z,15.1975
2023-04-29T02:26:35.440Z,16.4362
2023-04-29T02:27:38.035Z,15.3129
2023-04-29T02:28:40.647Z,16.3525
2023-04-29T02:29:43.202Z,15.0923
2023-04-29T02:30:45.826Z,14.8297
2023-04-29T02:31:48.412Z,16.9921
2023-04-29T02:32:51.040Z,16.5759
2023-04-29T02:33:53.585Z,16.6973
2023-04-29T02:34:56.208Z,16.5716
2023-04-29T02:35:58.776Z,16.3824
2023-04-29T02:37:01.399Z,13.4359
2023-04-29T02:38:03.978Z,13.1940
2023-04-29T02:39:06.599Z,15.3269
2023-04-29T02:40:09.166Z,16.4885
2023-04-29T02:41:11.763Z,14.1473
2023-04-29T02:42:14.339Z,14.7506
2023-04-29T02:43:16.959Z,17.3156
2023-04-29T02:44:19.526Z,13.3728
2023-04-29T02:45:22.149Z,16.2504
2023-04-29T02:46:24.773Z,14.1783
2023-04-29T02:47:27.378Z,14.9944
2023-04-29T02:48:29.899Z,15.4874
2023-04-29T02:49:32.530Z,16.7812
2023-04-29T02:50:35.105Z,16.0085
2023-04-29T02:51:37.719Z,15.9324
2023-04-29T02:52:40.421Z,17.3667
2023-04-29T02:53:42.897Z,16.5324
2023-04-29T02:54:45.471Z,16.6059
2023-04-29T02:55:48.083Z,18.7198
2023-04-29T02:56:50.827Z,16.1433
2023-04-29T02:57:53.282Z,17.3215
2023-04-29T02:58:55.856Z,18.2379
2023-04-29T02:59:58.496Z,18.8604
2023-04-29T03:01:01.097Z,18.9729
2023-04-29T03:02:03.673Z,18.1672
2023-04-29T03:03:06.330Z,19.9935
2023-04-29T03:04:09.328Z,17.5596
2023-04-29T03:05:11.451Z,17.5037
2023-04-29T03:06:14.045Z,15.5704
2023-04-29T03:07:16.620Z,16.7263
2023-04-29T03:08:19.237Z,14.8514
2023-04-29T03:09:21.808Z,16.7107
2023-04-29T03:10:24.440Z,16.0867
2023-04-29T03:11:27.020Z,14.4800
2023-04-29T03:12:29.636Z,16.8151
2023-04-29T03:13:32.193Z,16.1397
2023-04-29T03:14:34.803Z,15.9498
2023-04-29T03:15:37.381Z,16.9196
2023-04-29T03:16:40.048Z,15.7519
2023-04-29T03:17:42.574Z,15.4173
2023-04-29T03:18:45.207Z,14.9947
2023-04-29T03:19:47.751Z,17.2102
2023-04-29T03:20:50.368Z,16.5143
2023-04-29T03:21:54.016Z,16.1358
2023-04-29T03:22:55.546Z,15.4249
2023-04-29T03:23:58.122Z,16.5771
2023-04-29T03:25:00.740Z,19.0916
2023-04-29T03:26:03.351Z,18.2617
2023-04-29T03:27:05.925Z,19.7470
2023-04-29T03:28:08.510Z,18.9927
2023-04-29T03:31:09.698Z,18.3042
2023-04-29T03:32:11.987Z,20.8641
2023-04-29T03:33:14.552Z,19.2881
2023-04-29T03:35:56.156Z,19.2508
2023-04-29T03:36:58.727Z,21.2405
2023-04-29T03:38:01.344Z,24.4630
2023-04-29T03:39:03.917Z,22.6768
2023-04-29T03:40:06.537Z,20.3840
2023-04-29T03:41:09.105Z,22.3033
2023-04-29T03:42:11.735Z,23.6569
2023-04-29T03:43:14.306Z,22.4368
2023-04-29T03:44:16.920Z,22.1266
2023-04-29T03:45:19.493Z,20.6166
2023-04-29T03:47:37.021Z,20.3190
2023-04-29T03:48:39.594Z,20.6230
2023-04-29T03:51:21.154Z,19.3689
2023-04-29T03:54:02.766Z,19.1731
2023-04-29T03:55:05.339Z,21.0219
2023-04-29T03:56:07.954Z,22.0664
2023-04-29T03:57:10.523Z,20.9903
2023-04-29T03:58:13.140Z,22.6551
2023-04-29T03:59:15.721Z,23.9988
2023-04-29T04:00:18.333Z,23.2455
2023-04-29T04:01:20.913Z,24.8612
2023-04-29T04:02:23.631Z,23.2504
2023-04-29T04:03:26.254Z,22.9563
2023-04-29T04:04:28.879Z,22.9412
2023-04-29T04:05:31.295Z,22.2360
2023-04-29T04:06:33.928Z,22.8294
2023-04-29T04:07:36.495Z,22.5862
2023-04-29T04:08:39.113Z,23.3362
2023-04-29T04:09:41.681Z,22.4141
2023-04-29T04:10:44.306Z,20.9591
2023-04-29T04:11:46.876Z,21.3206
2023-04-29T04:12:49.497Z,23.2641
2023-04-29T04:13:52.110Z,22.1823
2023-04-29T04:14:54.684Z,21.2725
2023-04-29T04:15:57.275Z,20.9533
2023-04-29T04:16:59.877Z,21.7196
2023-04-29T04:18:02.518Z,22.5149
2023-04-29T04:19:05.075Z,23.8850
2023-04-29T04:20:07.659Z,25.7333
2023-04-29T04:21:10.275Z,29.5513
2023-04-29T04:22:13.074Z,26.9216
2023-04-29T04:23:15.452Z,26.9132
2023-04-29T04:24:18.021Z,27.7028
2023-04-29T04:25:20.655Z,29.4267
2023-04-29T04:26:23.236Z,28.4627
2023-04-29T04:27:25.848Z,27.0564
2023-04-29T04:28:28.403Z,29.2830
2023-04-29T04:29:31.045Z,27.1595
2023-04-29T04:30:33.597Z,26.9199
2023-04-29T04:31:36.291Z,28.8727
2023-04-29T04:32:38.828Z,26.7755
2023-04-29T04:33:41.421Z,30.2374
2023-04-29T04:34:43.984Z,26.8347
2023-04-29T04:35:46.610Z,27.5525
2023-04-29T04:36:49.189Z,27.1992
2023-04-29T04:37:51.795Z,27.2253
2023-04-29T04:38:54.554Z,28.3684
2023-04-29T04:39:56.993Z,26.9972
2023-04-29T04:40:59.571Z,29.4185
2023-04-29T04:42:02.172Z,29.4417
2023-04-29T04:43:04.745Z,28.2506
2023-04-29T04:44:07.372Z,27.9416
2023-04-29T04:45:09.938Z,28.5576
2023-04-29T04:46:12.637Z,28.8125
2023-04-29T04:48:20.383Z,29.4128
2023-04-29T04:49:23.010Z,30.1937
2023-04-29T04:50:25.585Z,28.3530
2023-04-29T04:51:28.585Z,28.0612
2023-04-29T04:52:30.775Z,27.8732
2023-04-29T04:53:33.398Z,27.7384
2023-04-29T04:54:35.966Z,28.8794
2023-04-29T04:55:38.580Z,28.2576
2023-04-29T04:56:41.147Z,28.0334
2023-04-29T04:57:43.771Z,26.2714
2023-04-29T04:58:46.339Z,27.1904
2023-04-29T04:59:48.959Z,25.4927
2023-04-29T05:00:51.565Z,23.2311
2023-04-29T05:01:54.196Z,25.6354
2023-04-29T05:02:56.815Z,25.3146
2023-04-29T05:03:59.572Z,23.8331
2023-04-29T05:05:01.939Z,24.2986
2023-04-29T05:06:04.561Z,23.0131
2023-04-29T05:07:07.126Z,22.3297
2023-04-29T05:08:09.767Z,20.5824
2023-04-29T05:09:12.330Z,19.1805
2023-04-29T05:10:14.944Z,17.8793
2023-04-29T05:11:17.540Z,19.0796
2023-04-29T05:12:20.152Z,21.1353
2023-04-29T05:13:22.726Z,20.2984
2023-04-29T05:14:25.347Z,22.0178
2023-04-29T05:15:27.912Z,19.7205
2023-04-29T05:16:30.547Z,21.5330
2023-04-29T05:17:33.110Z,22.1399
2023-04-29T05:18:35.696Z,20.5450
2023-04-29T05:19:38.268Z,20.1621
2023-04-29T05:20:40.881Z,18.9655
2023-04-29T05:21:43.471Z,20.9164
2023-04-29T05:22:46.076Z,22.2267
2023-04-29T05:23:48.660Z,20.9156
2023-04-29T05:24:51.288Z,21.4013
2023-04-29T05:25:53.851Z,21.5676
2023-04-29T05:26:56.477Z,21.7620
2023-04-29T05:27:59.033Z,20.7566
2023-04-29T05:29:01.659Z,20.2507
2023-04-29T05:30:04.231Z,21.1051
2023-04-29T05:31:06.921Z,18.5945
2023-04-29T05:32:09.409Z,16.5267
2023-04-29T05:33:12.037Z,20.0887
2023-04-29T05:34:14.624Z,19.9481
2023-04-29T05:35:17.233Z,20.0989
2023-04-29T05:36:19.793Z,20.3851
2023-04-29T05:37:22.445Z,19.2820
2023-04-29T05:38:24.994Z,19.5307
2023-04-29T05:39:27.626Z,21.7279
2023-04-29T05:40:30.253Z,20.7730
2023-04-29T05:41:32.796Z,18.2695
2023-04-29T05:42:35.367Z,17.9968
2023-04-29T05:43:38.000Z,19.4883
2023-04-29T05:44:40.577Z,16.8052
2023-04-29T05:45:43.188Z,17.3528
2023-04-29T05:46:45.796Z,16.5360
2023-04-29T05:47:48.396Z,15.8345
2023-04-29T05:48:50.925Z,16.6625
2023-04-29T05:49:53.799Z,15.5023
2023-04-29T05:50:56.113Z,16.4042
2023-04-29T05:51:58.736Z,17.0838
2023-04-29T05:54:30.811Z,16.0597
2023-04-29T05:55:33.249Z,15.1257
2023-04-29T05:56:35.876Z,17.0351
2023-04-29T05:57:38.456Z,18.4057
2023-04-29T05:58:41.089Z,16.7438
2023-04-29T05:59:43.640Z,16.3086
2023-04-29T06:00:46.253Z,14.6789
2023-04-29T06:01:48.829Z,15.3003
2023-04-29T06:02:58.608Z,15.1551
2023-04-29T06:03:54.214Z,14.4882
2023-04-29T06:04:56.866Z,14.3823
2023-04-29T06:05:59.600Z,13.6400
2023-04-29T06:07:01.831Z,13.0695
2023-04-29T06:08:04.402Z,13.0240
2023-04-29T06:09:13.446Z,11.6839
2023-04-29T06:10:09.580Z,13.5452
2023-04-29T06:11:12.218Z,12.9038
2023-04-29T06:12:14.774Z,12.0695
2023-04-29T06:13:17.407Z,11.6885
2023-04-29T06:14:19.955Z,10.7831
2023-04-29T06:15:22.581Z,11.2930
2023-04-29T06:16:25.196Z,11.0887
2023-04-29T06:17:27.806Z,10.4842
2023-04-29T06:18:30.347Z,9.8829
2023-04-29T06:19:33.010Z,11.4845
2023-04-29T06:20:37.489Z,11.2654
2023-04-29T06:21:38.130Z,9.7683
2023-04-29T06:22:40.702Z,10.3068
2023-04-29T06:23:43.322Z,9.6108
2023-04-29T06:24:45.892Z,10.3013
2023-04-29T06:25:48.870Z,10.4771
2023-04-29T06:26:51.075Z,9.6892
2023-04-29T06:27:53.706Z,10.4906
2023-04-29T06:28:56.245Z,9.3049
2023-04-29T06:29:58.871Z,9.0112
2023-04-29T06:31:01.431Z,10.8908
2023-04-29T06:32:04.085Z,9.3247
2023-04-29T06:33:06.648Z,8.8053
2023-04-29T06:34:09.258Z,7.9756
2023-04-29T06:35:11.788Z,9.4812
2023-04-29T06:36:14.407Z,9.3657
2023-04-29T06:37:16.952Z,9.3828
2023-04-29T06:38:19.571Z,9.2512
2023-04-29T06:39:22.149Z,8.6899
2023-04-29T06:40:24.788Z,7.8893
2023-04-29T06:41:27.324Z,8.1019
2023-04-29T06:42:29.929Z,7.0483
2023-04-29T06:43:32.490Z,7.0621
2023-04-29T06:44:35.116Z,7.6074
2023-04-29T06:45:37.674Z,7.6414
2023-04-29T06:46:40.299Z,7.9458
2023-04-29T06:47:42.864Z,8.3566
2023-04-29T06:48:45.462Z,7.9930
2023-04-29T06:49:48.022Z,7.4408
2023-04-29T06:50:50.639Z,7.7562
2023-04-29T06:51:53.215Z,7.7701
2023-04-29T06:52:55.830Z,5.7834
2023-04-29T06:53:58.393Z,6.2992
2023-04-29T06:55:01.032Z,5.6588
2023-04-29T06:56:03.576Z,8.7758
2023-04-29T06:57:06.180Z,7.2378
2023-04-29T06:58:08.771Z,7.4658
2023-04-29T06:59:11.362Z,7.6829
2023-04-29T07:00:13.922Z,5.9658
2023-04-29T07:01:16.580Z,7.7301
2023-04-29T07:02:19.201Z,6.7547
2023-04-29T07:03:21.788Z,7.6439
2023-04-29T07:04:24.358Z,7.8658
2023-04-29T07:05:26.923Z,7.5843
2023-04-29T07:06:29.693Z,6.4256
2023-04-29T07:07:32.093Z,7.0131
2023-04-29T07:08:34.662Z,7.3241
2023-04-29T07:09:37.279Z,8.5151
2023-04-29T07:10:39.836Z,8.9294
2023-04-29T07:11:42.458Z,7.5778
2023-04-29T07:12:45.018Z,8.0540
2023-04-29T07:13:47.637Z,7.7923
2023-04-29T07:14:50.208Z,8.1004
2023-04-29T07:15:52.825Z,7.4740
2023-04-29T07:16:55.486Z,8.3461
2023-04-29T07:17:58.035Z,8.8004
2023-04-29T07:19:00.567Z,8.3012
2023-04-29T07:20:03.170Z,8.0507
2023-04-29T07:21:05.721Z,7.6165
2023-04-29T07:22:08.333Z,8.5464
2023-04-29T07:23:10.897Z,7.3876
2023-04-29T07:24:13.502Z,6.7577
2023-04-29T07:25:16.068Z,8.2763
2023-04-29T07:26:18.678Z,8.0169
2023-04-29T07:27:21.257Z,6.8800
2023-04-29T07:28:23.872Z,6.6823
2023-04-29T07:29:26.425Z,6.7737
2023-04-29T07:30:29.039Z,6.5049
2023-04-29T07:31:31.789Z,5.8663
2023-04-29T07:32:34.273Z,7.0842
2023-04-29T07:33:36.776Z,6.2233
2023-04-29T07:34:39.379Z,6.3752
2023-04-29T07:35:41.938Z,5.6628
2023-04-29T07:36:44.527Z,5.2308
2023-04-29T07:37:47.140Z,5.9824
2023-04-29T07:38:49.754Z,6.4084
2023-04-29T07:41:36.029Z,6.7023
2023-04-29T07:42:38.580Z,7.1201
2023-04-29T07:43:42.503Z,7.6310
2023-04-29T07:44:43.789Z,5.8153
2023-04-29T07:45:46.397Z,6.1180
2023-04-29T07:46:48.996Z,5.6721
2023-04-29T07:47:51.655Z,5.4910
2023-04-29T07:48:54.134Z,5.6338
2023-04-29T07:49:56.737Z,5.6941
2023-04-29T07:50:59.305Z,6.3621
2023-04-29T07:52:01.907Z,7.0718
2023-04-29T07:53:04.477Z,6.4316
2023-04-29T07:54:07.098Z,7.0196
2023-04-29T07:55:09.709Z,6.6214
2023-04-29T07:56:12.261Z,6.6045
2023-04-29T07:57:14.812Z,6.0016
2023-04-29T07:59:51.508Z,4.5677
2023-04-29T08:00:54.114Z,5.0818
2023-04-29T08:01:56.666Z,5.2843
2023-04-29T08:02:59.389Z,4.3918
2023-04-29T08:04:02.049Z,5.2359
2023-04-29T08:05:05.078Z,4.3977
2023-04-29T08:06:07.121Z,5.2802
2023-04-29T08:07:09.659Z,4.0295
2023-04-29T08:08:12.195Z,3.8748
2023-04-29T08:09:14.815Z,4.9102
2023-04-29T08:10:17.449Z,5.5833
2023-04-29T08:11:20.004Z,4.4962
2023-04-29T08:12:22.600Z,4.4971
2023-04-29T08:13:25.140Z,4.9235
2023-04-29T08:14:27.764Z,4.5641
2023-04-29T08:15:30.330Z,4.1591
2023-04-29T08:16:32.982Z,4.2014
2023-04-29T08:17:35.498Z,4.1188
2023-04-29T08:18:38.165Z,4.5428
2023-04-29T08:19:40.683Z,4.6247
2023-04-29T08:20:43.299Z,4.6093
2023-04-29T08:21:45.869Z,5.2772
2023-04-29T08:22:48.490Z,5.0075
2023-04-29T08:25:15.516Z,5.9781
2023-04-29T08:26:18.113Z,4.6769
2023-04-29T08:27:20.671Z,5.7633
2023-04-29T08:28:23.289Z,5.2507
2023-04-29T08:29:25.846Z,5.0333
2023-04-29T08:30:28.482Z,5.3395
2023-04-29T08:31:31.049Z,5.5089
2023-04-29T08:32:33.657Z,5.1071
2023-04-29T08:33:36.215Z,5.6790
2023-04-29T08:34:38.813Z,5.1052
2023-04-29T08:35:41.377Z,5.7115
2023-04-29T08:36:43.995Z,6.4588
2023-04-29T08:37:46.551Z,6.3686
2023-04-29T08:38:49.167Z,5.4115
2023-04-29T08:39:51.723Z,6.0858
2023-04-29T08:40:54.345Z,4.7683
2023-04-29T08:41:56.897Z,6.4380
2023-04-29T08:42:59.524Z,5.3678
2023-04-29T08:44:02.086Z,6.4642
2023-04-29T08:45:04.697Z,5.4824
2023-04-29T08:46:07.277Z,5.2581
2023-04-29T08:47:09.948Z,5.5324
2023-04-29T08:48:12.512Z,4.8869
2023-04-29T08:49:15.023Z,3.9676
2023-04-29T08:50:17.586Z,6.4301
2023-04-29T08:51:20.189Z,6.7327
2023-04-29T08:52:22.745Z,6.5974
2023-04-29T08:53:25.380Z,5.8713
2023-04-29T08:54:27.923Z,5.8134
2023-04-29T08:55:30.538Z,5.8053
2023-04-29T08:56:33.090Z,6.4906
2023-04-29T08:57:35.701Z,6.4326
2023-04-29T08:58:38.262Z,6.9078
2023-04-29T09:00:46.052Z,5.1695
2023-04-29T09:01:48.675Z,6.7705
2023-04-29T09:02:51.295Z,6.4589
2023-04-29T09:03:54.054Z,7.2282
2023-04-29T09:04:56.687Z,7.0220
2023-04-29T09:05:59.003Z,7.7713
2023-04-29T09:07:01.571Z,6.1956
2023-04-29T09:08:04.173Z,6.0753
2023-04-29T09:09:06.746Z,6.6597
2023-04-29T09:10:09.356Z,6.3406
2023-04-29T09:11:11.914Z,7.1118
2023-04-29T09:12:14.520Z,6.1501
2023-04-29T09:13:17.080Z,7.1648
2023-04-29T09:14:19.705Z,7.0902
2023-04-29T09:15:22.271Z,7.9487
2023-04-29T09:16:25.000Z,7.2510
2023-04-29T09:17:27.434Z,6.1631
2023-04-29T09:18:30.043Z,5.5696
2023-04-29T09:19:32.626Z,7.8702
2023-04-29T09:20:35.216Z,9.6835
2023-04-29T09:21:37.782Z,7.5064
2023-04-29T09:22:40.399Z,6.2067
2023-04-29T09:23:42.952Z,6.8883
2023-04-29T09:24:45.564Z,7.9667
2023-04-29T09:25:48.133Z,6.7028
2023-04-29T09:26:51.817Z,8.4236
2023-04-29T09:27:53.302Z,6.9083
2023-04-29T09:28:55.903Z,6.6267
2023-04-29T09:29:58.467Z,6.1816
2023-04-29T09:31:01.091Z,6.4293
2023-04-29T09:32:03.677Z,7.9620
2023-04-29T09:33:06.393Z,6.4839
2023-04-29T09:34:08.816Z,6.4511
2023-04-29T09:35:11.407Z,7.6016
2023-04-29T09:36:13.965Z,7.5809
2023-04-29T09:38:26.524Z,6.8852
2023-04-29T09:39:29.140Z,7.0074
2023-04-29T09:40:31.705Z,8.1313
2023-04-29T09:41:34.314Z,6.6388
2023-04-29T09:42:36.884Z,6.3647
2023-04-29T09:43:39.513Z,5.0479
2023-04-29T09:44:42.064Z,5.7314
2023-04-29T09:45:44.689Z,6.5671
2023-04-29T09:46:47.238Z,7.2440
2023-04-29T09:47:49.872Z,8.2254
2023-04-29T09:48:52.400Z,7.4842
2023-04-29T09:49:55.013Z,6.5175
2023-04-29T09:50:57.574Z,10.2815
2023-04-29T09:52:00.186Z,9.5215
2023-04-29T09:53:02.752Z,7.4359
2023-04-29T09:54:05.354Z,8.4554
2023-04-29T09:55:07.927Z,7.5373
2023-04-29T09:56:10.538Z,7.6341
2023-04-29T09:57:13.133Z,7.4159
2023-04-29T09:58:15.803Z,6.9563
2023-04-29T09:59:18.265Z,6.2292
2023-04-29T10:00:20.878Z,6.8931
2023-04-29T10:01:23.508Z,6.5569
2023-04-29T10:02:26.144Z,7.4540
2023-04-29T10:03:28.688Z,6.3068
2023-04-29T10:04:31.282Z,5.5611
2023-04-29T10:05:33.789Z,6.7182
2023-04-29T10:06:36.429Z,6.3242
2023-04-29T10:07:38.972Z,5.5711
2023-04-29T10:08:41.599Z,7.0295
2023-04-29T10:09:44.140Z,7.1415
2023-04-29T10:10:46.740Z,6.4932
2023-04-29T10:11:49.305Z,6.4743
2023-04-29T10:12:51.915Z,5.9203
2023-04-29T10:13:54.471Z,5.6197
2023-04-29T10:14:57.085Z,6.9032
2023-04-29T10:15:59.712Z,5.6511
2023-04-29T10:17:02.284Z,6.2836
2023-04-29T10:18:04.846Z,6.3926
2023-04-29T10:19:07.429Z,5.7680
2023-04-29T10:20:09.990Z,7.1915
2023-04-29T10:21:12.797Z,5.8653
2023-04-29T10:22:15.226Z,6.3094
2023-04-29T10:23:17.831Z,6.3350
2023-04-29T10:24:20.389Z,6.0579
2023-04-29T10:25:22.997Z,6.6075
2023-04-29T10:27:35.558Z,5.3709
2023-04-29T10:28:38.123Z,6.4874
2023-04-29T10:29:40.735Z,5.7344
2023-04-29T10:30:43.302Z,5.5733
2023-04-29T10:31:46.044Z,5.7592
2023-04-29T10:32:51.757Z,6.6023
2023-04-29T10:35:29.945Z,4.6023
2023-04-29T10:38:25.836Z,5.3174
2023-04-29T10:39:28.387Z,5.0331
2023-04-29T10:40:31.024Z,6.0787
2023-04-29T10:41:33.565Z,6.6957
2023-04-29T10:42:36.190Z,6.9885
2023-04-29T10:43:38.743Z,7.4272
2023-04-29T10:44:41.359Z,5.9584
2023-04-29T10:45:43.929Z,6.5893
2023-04-29T10:46:46.554Z,6.1161
2023-04-29T10:47:49.111Z,7.5373
2023-04-29T10:48:51.700Z,6.3039
2023-04-29T10:49:54.262Z,6.5698
2023-04-29T10:50:56.864Z,6.2806
2023-04-29T10:51:59.417Z,6.0709
2023-04-29T10:53:02.035Z,7.2712
2023-04-29T10:54:04.617Z,6.5331
2023-04-29T10:55:07.183Z,5.7728
2023-04-29T10:56:09.810Z,6.8943
2023-04-29T10:57:12.645Z,7.5018
2023-04-29T10:58:14.951Z,7.1596
2023-04-29T10:59:17.524Z,7.6660
2023-04-29T11:00:20.117Z,7.2687
2023-04-29T11:01:22.727Z,6.7098
2023-04-29T11:02:25.355Z,7.6688
2023-04-29T11:03:27.878Z,7.0523
2023-04-29T11:04:30.496Z,6.4475
2023-04-29T11:05:33.023Z,7.9101
2023-04-29T11:06:35.619Z,8.8867
2023-04-29T11:07:38.202Z,5.9502
2023-04-29T11:08:40.789Z,6.9952
2023-04-29T11:09:43.348Z,6.7027
2023-04-29T11:10:45.967Z,6.6257
2023-04-29T11:11:48.511Z,7.9913
2023-04-29T11:12:51.109Z,6.9093
2023-04-29T11:13:53.797Z,6.6855
2023-04-29T11:14:56.357Z,7.7264
2023-04-29T11:15:58.871Z,7.5901
2023-04-29T11:17:01.464Z,7.2613
2023-04-29T11:18:04.001Z,7.2583
2023-04-29T11:19:06.591Z,6.4080
2023-04-29T11:20:09.146Z,6.9271
2023-04-29T11:21:11.764Z,6.1421
2023-04-29T11:22:14.305Z,8.1137
2023-04-29T11:23:16.905Z,7.5971
2023-04-29T11:24:19.459Z,6.3504
2023-04-29T11:25:22.078Z,7.2364
2023-04-29T11:26:24.637Z,6.6945
2023-04-29T11:27:27.243Z,7.2156
2023-04-29T11:28:29.802Z,6.4866
2023-04-29T11:29:32.384Z,7.1177
2023-04-29T11:30:34.938Z,7.7843
2023-04-29T11:31:37.638Z,7.6691
2023-04-29T11:32:40.243Z,7.9143
2023-04-29T11:33:42.804Z,7.8701
2023-04-29T11:34:45.271Z,7.2838
2023-04-29T11:35:47.857Z,6.9738
2023-04-29T11:36:50.406Z,7.5375
2023-04-29T11:37:53.029Z,8.1555
2023-04-29T11:38:55.584Z,7.3323
2023-04-29T11:39:58.207Z,7.6423
2023-04-29T11:41:00.752Z,7.0177
2023-04-29T11:42:03.338Z,7.6961
2023-04-29T11:43:05.888Z,7.5182
2023-04-29T11:44:08.495Z,7.6025
2023-04-29T11:45:11.094Z,7.2796
2023-04-29T11:46:13.792Z,8.6088
2023-04-29T11:48:59.857Z,7.6780
2023-04-29T11:50:02.443Z,7.7909
2023-04-29T11:51:05.042Z,10.4775
2023-04-29T11:52:07.632Z,9.5419
2023-04-29T11:53:10.229Z,8.8003
2023-04-29T11:54:12.763Z,8.3016
2023-04-29T11:55:15.383Z,8.2029
2023-04-29T11:56:18.088Z,8.1963
2023-04-29T11:57:20.545Z,9.1411
2023-04-29T11:58:23.113Z,9.4562
2023-04-29T11:59:25.710Z,9.8171
2023-04-29T12:00:28.323Z,10.7313
2023-04-29T12:01:30.895Z,11.1695
2023-04-29T12:02:33.601Z,10.0965
2023-04-29T12:03:36.255Z,10.6246
2023-04-29T12:04:38.807Z,11.2086
2023-04-29T12:05:41.329Z,9.8687
2023-04-29T12:06:43.771Z,10.9544
2023-04-29T12:07:46.386Z,11.1210
2023-04-29T12:08:48.959Z,12.0366
2023-04-29T12:09:51.552Z,12.9074
2023-04-29T12:10:54.113Z,12.0034
2023-04-29T12:11:56.964Z,11.8646
2023-04-29T12:12:59.281Z,14.2110
2023-04-29T12:14:01.889Z,12.3462
2023-04-29T12:15:04.433Z,12.8481
2023-04-29T12:16:07.080Z,11.9348
2023-04-29T12:17:09.616Z,13.3067
2023-04-29T12:18:12.317Z,10.5854
2023-04-29T12:19:14.773Z,12.4505
2023-04-29T12:20:17.389Z,11.2361
2023-04-29T12:21:19.938Z,11.5412
2023-04-29T12:22:22.554Z,12.5022
2023-04-29T12:23:25.114Z,12.1578
2023-04-29T12:24:27.724Z,11.8168
2023-04-29T12:25:30.293Z,11.4453
2023-04-29T12:26:32.889Z,11.0678
2023-04-29T12:27:35.447Z,10.8050
2023-04-29T12:28:38.046Z,11.9276
2023-04-29T12:29:40.630Z,11.3565
2023-04-29T12:30:43.204Z,9.7149
2023-04-29T12:31:45.861Z,11.3041
2023-04-29T12:32:48.418Z,12.0543
2023-04-29T12:33:50.937Z,11.4801
2023-04-29T12:34:53.787Z,11.4645
2023-04-29T12:35:56.086Z,13.2612
2023-04-29T12:36:58.701Z,11.8576
2023-04-29T12:38:01.246Z,12.2713
2023-04-29T12:39:03.869Z,10.6022
2023-04-29T12:40:06.418Z,11.0978
2023-04-29T12:42:09.549Z,9.9660
2023-04-29T12:43:12.109Z,9.6915
2023-04-29T12:44:14.751Z,10.9085
2023-04-29T12:45:17.278Z,11.4703
2023-04-29T12:46:19.950Z,10.0943
2023-04-29T12:47:22.467Z,9.2510
2023-04-29T12:48:30.036Z,10.7315
2023-04-29T12:49:27.623Z,11.7917
2023-04-29T12:50:30.216Z,11.1258
2023-04-29T12:51:32.794Z,13.0417
2023-04-29T12:52:36.871Z,11.7504
2023-04-29T12:53:37.937Z,10.5514
2023-04-29T12:54:40.545Z,11.8549
2023-04-29T12:55:43.115Z,11.2495
2023-04-29T12:56:45.752Z,12.0332
2023-04-29T12:57:48.265Z,10.7214
2023-04-29T12:58:51.072Z,9.9273
2023-04-29T12:59:53.644Z,10.1045
2023-04-29T13:00:56.064Z,10.8107
2023-04-29T13:01:58.614Z,10.5490
2023-04-29T13:03:01.308Z,10.6825
2023-04-29T13:04:03.861Z,11.4961
2023-04-29T13:05:06.568Z,10.9667
2023-04-29T13:06:08.941Z,9.8924
2023-04-29T13:07:11.534Z,10.3492
2023-04-29T13:08:14.104Z,9.5118
2023-04-29T13:09:18.817Z,10.3415
2023-04-29T13:10:19.268Z,8.8156
2023-04-29T13:11:21.866Z,11.1814
2023-04-29T13:12:24.413Z,9.3283
2023-04-29T13:13:27.024Z,9.9957
2023-04-29T13:14:29.583Z,10.6794
2023-04-29T13:15:32.192Z,9.4771
2023-04-29T13:16:36.310Z,10.6557
2023-04-29T13:17:37.370Z,10.5807
2023-04-29T13:18:40.119Z,9.1996
2023-04-29T13:19:51.194Z,10.6146